Aviation Digital Data Service (ADDS)

Output produced by METARs form (0134 UTC 23 November 2017)
found at http://www.aviationweather.gov/adds/metars/
 
DGAA 230100Z 27007KT CAVOK 25/24 Q1011 NOSIG
TAF DGAA 222300Z 2300/2406 27006KT 9999 FEW012 
     TEMPO 2306/2310 4000 BR NSC 
     BECMG 2311/2313 18012KT SCT028 
     TEMPO 2315/2319 4000 TSRA BKN012 FEW030CB